x

Corpus Christi, Tx - 60nm Sse Of Corpus Christi, Tx (42020) Wave Buoy

8:50am - Sun 24th Jul 2016 All times are CDT. -5 hours from GMT.

  • Sig Wave height 2.3ft
  • Swell Direction
  • Peak Period 5s
  • Average Period 4s
  • Wind
    11mph
  • Sea Temp 84°f
  • Air Temp 84°f
  • Sea Pressure 1013.4mb
  • Corpus Christi, Tx - 60nm Sse Of Corpus Christi, Tx
  • Corpus Christi, Tx - 60nm Sse Of Corpus Christi, Tx

More Historic Weather Station data

Upgrade to MSW Pro to gain access to the past 30 days of data for over 8000 Wavebouys and Weather Stations around the globe.

Join Pro

Comparision Forecast

View Surf forecast
   
Sun 07/24 8:50am 2.5ft 5s 4s 11
mph
1013.4mb 84f 84f
7:50am 2.5ft 5s 4s 11
mph
1012.9mb 84f 84f
6:50am 2.5ft 5s 4s 13 18 mph 1012.2mb 84f 84f
5:50am 2.5ft 4s 4s 13 16 mph 1012mb 84f 84f
4:50am 2.5ft 5s 4s 13 16 mph 1012mb 84f 84f
3:50am 2.5ft 4s 4s 16 18 mph 1012.2mb 84f 84f
2:50am 3ft 4s 4s 18
mph
1012.6mb 84f 85f
1:50am 3ft 4s 4s 16 18 mph 1013mb 84f 85f
12:50am 2.5ft 4s 4s 18 20 mph 1013.3mb 84f 85f
Sat 07/23 11:50pm 2.5ft 4s 3s 18 20 mph 1013.4mb 85f 85f
10:50pm 2ft 3s 3s 18 20 mph 1012.8mb 85f 85f
9:50pm 2ft 3s 3s 18 20 mph 1012mb 85f 85f
8:50pm 1.6ft 4s 3s 16 18 mph 1011.4mb 85f 85f
7:50pm 1.6ft 4s 3s 13 18 mph 1011.4mb 85f 85f
6:50pm 1.6ft 5s 4s 13 16 mph 1011.3mb 85f 85f
5:50pm 1.3ft 4s 4s 11 13 mph 1012mb 85f 85f
4:50pm 1.3ft 5s 4s 11 13 mph 1012.8mb 86f 85f
3:50pm 1.3ft 5s 4s 9 11 mph 1013.5mb 86f 85f
2:50pm 1.3ft 5s 4s 7 9 mph 1014.1mb 86f 85f
1:50pm 1.6ft 5s 4s 7 9 mph 1014.6mb 87f 85f
12:50pm 1.3ft 4s 4s 4 7 mph 1014.8mb 87f 84f
11:50am 1.6ft 5s 4s 2 4 mph 1015.1mb 87f 84f
10:50am 1.6ft 5s  -  2
mph
1015.3mb 85f 84f
9:50am 1.6ft 4s 4s 2 4 mph 1014.9mb 84f 84f
8:50am 2ft 5s 4s 2 4 mph 1014.6mb 84f 84f
7:50am 2ft 4s 4s 7
mph
1014mb 84f 84f
6:50am 2ft 4s 4s 9 11 mph 1013.5mb 84f 84f
5:50am 2ft 4s 4s 7 9 mph 1013.5mb 84f 84f
4:50am 2.5ft 4s 4s 9 11 mph 1013.6mb 84f 84f
3:50am 2ft 3s 4s 13 16 mph 1013.8mb 84f 84f
2:50am 2ft 3s 4s 13 16 mph 1013.8mb 85f 83f
1:50am 2.5ft 5s 4s 13 18 mph 1014.5mb 85f 85f
12:50am 2ft 5s 4s 16 18 mph 1014.7mb 85f 85f
Fri 07/22 11:50pm 2ft 6s 4s 16 18 mph 1014.8mb 84f 85f
10:50pm 2ft 6s 4s 13 16 mph 1015mb 85f 85f
9:50pm 1.6ft 7s 4s 11 13 mph 1014.7mb 85f 85f
8:50pm 1.6ft 6s 4s 11 13 mph 1014.2mb 85f 85f
7:50pm 2ft 5s 4s 11 13 mph 1014.4mb 85f 85f
6:50pm 2ft 6s 4s 9 11 mph 1014.5mb 85f 85f
5:50pm 2ft 6s 5s 11
mph
1014.9mb 85f 85f
4:50pm 2ft 7s 5s 9 11 mph 1015.7mb 86f 85f
3:50pm 2ft 6s 5s 9
mph
1016.4mb 85f 85f
2:50pm 2ft 6s 5s 9 11 mph 1017.1mb 85f 85f
12:50pm 2ft 7s 5s 7
mph
1018.3mb 85f 85f
11:50am 2ft 7s 5s 7
mph
1018mb 85f 85f
10:50am 2ft 6s 5s 4 7 mph 1018mb 85f 85f
9:50am 2ft 6s 5s 7
mph
1017.7mb 84f 85f
8:50am 2.5ft 6s 5s 4 7 mph 1017.4mb 84f 84f
7:50am 2.5ft 6s 5s 2
mph
1017.1mb 84f 84f
6:50am 2.5ft 7s 5s 2 4 mph 1016.7mb 84f 84f
5:50am 2.5ft 7s 5s 4
mph
1016.3mb 84f 84f
4:50am 3ft 6s 5s 4 7 mph 1016.1mb 84f 84f
3:50am 3ft 7s 5s 9
mph
1016.2mb 84f 84f
2:50am 3ft 8s 5s 9 11 mph 1016.5mb 84f 85f
1:50am 3ft 7s 5s 11 13 mph 1016.6mb 84f 85f
12:50am 3ft 6s 5s 11 13 mph 1017.1mb 84f 85f
Thu 07/21 11:50pm 3ft 6s 5s 9 11 mph 1017.2mb 84f 85f
10:50pm 3.5ft 6s 5s 9 11 mph 1017.2mb 84f 85f
9:50pm 3.5ft 7s 5s 11 13 mph 1017.1mb 84f 85f
8:50pm 3.5ft 7s 5s 13 16 mph 1016.9mb 84f 85f
7:50pm 3ft 8s 5s 13 16 mph 1016.8mb 85f 85f
6:50pm 3.5ft 7s 5s 11 13 mph 1016.8mb 85f 85f
5:50pm 3ft 8s 5s 11 13 mph 1017mb 85f 85f
4:50pm 3.5ft 7s 5s 11 13 mph 1017.6mb 85f 85f
3:50pm 3ft 8s 5s 11 13 mph 1017.9mb 85f 85f
2:50pm 3.5ft 8s 6s 11 13 mph 1018.6mb 85f 85f
1:50pm 3.5ft 7s 6s 9 11 mph 1019.4mb 85f 85f
12:50pm 3ft 8s 5s 11
mph
1019.7mb 85f 85f
11:50am 3.5ft 8s 6s 7 9 mph 1019.6mb 85f 85f
10:50am 3.5ft 8s 6s 7 9 mph 1019.5mb 84f 85f
9:50am 3.5ft 7s 6s 4
mph
1019.2mb 84f 85f
8:50am 3.5ft 7s 5s 4 7 mph 1018.9mb 84f 85f
7:50am 4.5ft 6s 6s 4
mph
1018.3mb 84f 85f
6:50am 3.5ft 7s 5s 4 7 mph 1017.6mb 84f 84f
5:50am 3.5ft 7s 5s 7
mph
1017.2mb 84f 84f
4:50am 3.5ft 6s 5s 9
mph
1016.7mb 84f 84f
3:50am 4ft 8s 5s 9 11 mph 1016.9mb 84f 84f
2:50am 3.5ft 8s 5s 9 13 mph 1017.5mb 84f 84f
1:50am 3.5ft 7s 5s 11 13 mph 1018.2mb 84f 85f
12:50am 3.5ft 8s 5s 11 13 mph 1018.4mb 84f 84f
Wed 07/20 11:50pm 3.5ft 6s 5s 16 18 mph 1018.7mb 84f 85f
10:50pm 3.5ft 7s 5s 13 16 mph 1018.6mb 85f 85f
9:50pm 3.5ft 6s 5s 13 16 mph 1018.5mb 85f 85f
8:50pm 3.5ft 7s 5s 13 16 mph 1018.1mb 85f 85f
7:50pm 3.5ft 7s 5s 16 18 mph 1017.8mb 85f 85f
6:50pm 3ft 8s 5s 13 16 mph 1018mb 85f 85f
5:50pm 3.5ft 8s 5s 13 16 mph 1018.1mb 85f 85f
4:50pm 3.5ft 7s 5s 11 13 mph 1018.3mb 85f 85f
3:50pm 3.5ft 7s 5s 11 13 mph 1018.7mb 85f 85f